sensor_id;sensor_type;location;lat;lon;timestamp;temperature;humidity
51011;DHT22;37038;50.182;8.624;2023-06-22T00:01:47;22.60;99.90
51011;DHT22;37038;50.182;8.624;2023-06-22T00:04:36;22.60;99.90
51011;DHT22;37038;50.182;8.624;2023-06-22T00:07:25;22.60;99.90
51011;DHT22;37038;50.182;8.624;2023-06-22T00:10:15;22.50;99.90
51011;DHT22;37038;50.182;8.624;2023-06-22T00:13:08;22.50;99.90
51011;DHT22;37038;50.182;8.624;2023-06-22T00:15:56;22.60;99.90
51011;DHT22;37038;50.182;8.624;2023-06-22T00:18:44;22.60;99.90
51011;DHT22;37038;50.182;8.624;2023-06-22T00:21:34;22.40;99.90
51011;DHT22;37038;50.182;8.624;2023-06-22T00:24:25;22.50;99.90
51011;DHT22;37038;50.182;8.624;2023-06-22T00:27:13;22.50;99.90
51011;DHT22;37038;50.182;8.624;2023-06-22T00:30:01;22.50;99.90
51011;DHT22;37038;50.182;8.624;2023-06-22T00:32:50;22.50;99.90
51011;DHT22;37038;50.182;8.624;2023-06-22T00:35:39;22.50;99.90
51011;DHT22;37038;50.182;8.624;2023-06-22T00:38:29;22.40;99.90
51011;DHT22;37038;50.182;8.624;2023-06-22T00:41:17;22.50;99.90
51011;DHT22;37038;50.182;8.624;2023-06-22T00:44:05;22.40;99.90
51011;DHT22;37038;50.182;8.624;2023-06-22T00:46:54;22.70;99.90
51011;DHT22;37038;50.182;8.624;2023-06-22T00:49:46;22.80;99.90
51011;DHT22;37038;50.182;8.624;2023-06-22T00:52:36;23.00;99.90
51011;DHT22;37038;50.182;8.624;2023-06-22T00:55:24;23.00;99.90
51011;DHT22;37038;50.182;8.624;2023-06-22T00:58:18;22.80;99.90
51011;DHT22;37038;50.182;8.624;2023-06-22T01:01:10;22.70;99.90
51011;DHT22;37038;50.182;8.624;2023-06-22T01:03:59;22.90;99.90
51011;DHT22;37038;50.182;8.624;2023-06-22T01:07:21;23.00;99.90
51011;DHT22;37038;50.182;8.624;2023-06-22T01:10:27;23.30;99.90
51011;DHT22;37038;50.182;8.624;2023-06-22T01:23:09;22.10;99.90
51011;DHT22;37038;50.182;8.624;2023-06-22T01:26:21;21.80;99.90
51011;DHT22;37038;50.182;8.624;2023-06-22T01:29:15;21.80;99.90
51011;DHT22;37038;50.182;8.624;2023-06-22T01:32:05;21.70;99.90
51011;DHT22;37038;50.182;8.624;2023-06-22T01:34:57;21.70;99.90
51011;DHT22;37038;50.182;8.624;2023-06-22T01:37:46;21.60;99.90
51011;DHT22;37038;50.182;8.624;2023-06-22T01:40:34;21.50;99.90
51011;DHT22;37038;50.182;8.624;2023-06-22T01:43:27;21.40;99.90
51011;DHT22;37038;50.182;8.624;2023-06-22T01:46:15;21.30;99.90
51011;DHT22;37038;50.182;8.624;2023-06-22T01:49:04;21.30;99.90
51011;DHT22;37038;50.182;8.624;2023-06-22T01:51:52;21.40;99.90
51011;DHT22;37038;50.182;8.624;2023-06-22T01:54:41;21.40;99.90
51011;DHT22;37038;50.182;8.624;2023-06-22T01:57:29;21.40;99.90
51011;DHT22;37038;50.182;8.624;2023-06-22T02:00:21;21.50;99.90
51011;DHT22;37038;50.182;8.624;2023-06-22T02:03:13;21.50;99.90
51011;DHT22;37038;50.182;8.624;2023-06-22T02:06:08;21.20;99.90
51011;DHT22;37038;50.182;8.624;2023-06-22T02:09:02;21.10;99.90
51011;DHT22;37038;50.182;8.624;2023-06-22T02:11:52;21.20;99.90
51011;DHT22;37038;50.182;8.624;2023-06-22T02:14:43;21.30;99.90
51011;DHT22;37038;50.182;8.624;2023-06-22T02:17:31;21.30;99.90
51011;DHT22;37038;50.182;8.624;2023-06-22T02:20:20;21.30;99.90
51011;DHT22;37038;50.182;8.624;2023-06-22T02:23:08;21.30;99.90
51011;DHT22;37038;50.182;8.624;2023-06-22T02:25:56;21.40;99.90
51011;DHT22;37038;50.182;8.624;2023-06-22T02:28:44;21.50;99.90
51011;DHT22;37038;50.182;8.624;2023-06-22T02:31:34;21.50;99.90
51011;DHT22;37038;50.182;8.624;2023-06-22T02:34:22;21.50;99.90
51011;DHT22;37038;50.182;8.624;2023-06-22T02:37:10;21.50;99.90
51011;DHT22;37038;50.182;8.624;2023-06-22T02:39:59;21.40;99.90
51011;DHT22;37038;50.182;8.624;2023-06-22T02:42:48;21.40;99.90
51011;DHT22;37038;50.182;8.624;2023-06-22T02:45:36;21.50;99.90
51011;DHT22;37038;50.182;8.624;2023-06-22T02:48:24;21.70;99.90
51011;DHT22;37038;50.182;8.624;2023-06-22T02:51:12;21.60;99.90
51011;DHT22;37038;50.182;8.624;2023-06-22T02:54:00;21.70;99.90
51011;DHT22;37038;50.182;8.624;2023-06-22T02:56:48;21.60;99.90
51011;DHT22;37038;50.182;8.624;2023-06-22T02:59:37;21.50;99.90
51011;DHT22;37038;50.182;8.624;2023-06-22T03:02:28;21.30;99.90
51011;DHT22;37038;50.182;8.624;2023-06-22T03:05:16;21.30;99.90
51011;DHT22;37038;50.182;8.624;2023-06-22T03:08:06;21.30;99.90
51011;DHT22;37038;50.182;8.624;2023-06-22T03:10:54;21.20;99.90
51011;DHT22;37038;50.182;8.624;2023-06-22T03:13:43;21.20;99.90
51011;DHT22;37038;50.182;8.624;2023-06-22T03:16:31;21.20;99.90
51011;DHT22;37038;50.182;8.624;2023-06-22T03:19:18;21.20;99.90
51011;DHT22;37038;50.182;8.624;2023-06-22T03:22:09;21.30;99.90
51011;DHT22;37038;50.182;8.624;2023-06-22T03:25:00;21.50;99.90
51011;DHT22;37038;50.182;8.624;2023-06-22T03:27:48;21.50;99.90
51011;DHT22;37038;50.182;8.624;2023-06-22T03:30:35;21.50;99.90
51011;DHT22;37038;50.182;8.624;2023-06-22T03:33:23;21.50;99.90
51011;DHT22;37038;50.182;8.624;2023-06-22T03:36:11;21.50;99.90
51011;DHT22;37038;50.182;8.624;2023-06-22T03:38:58;21.50;99.90
51011;DHT22;37038;50.182;8.624;2023-06-22T03:41:46;21.70;99.90
51011;DHT22;37038;50.182;8.624;2023-06-22T03:44:35;21.70;99.90
51011;DHT22;37038;50.182;8.624;2023-06-22T03:47:23;21.60;99.90
51011;DHT22;37038;50.182;8.624;2023-06-22T03:50:11;21.70;99.90
51011;DHT22;37038;50.182;8.624;2023-06-22T03:52:59;21.60;99.90
51011;DHT22;37038;50.182;8.624;2023-06-22T03:55:49;21.50;99.90
51011;DHT22;37038;50.182;8.624;2023-06-22T03:58:37;21.50;99.90
51011;DHT22;37038;50.182;8.624;2023-06-22T04:01:30;21.40;99.90
51011;DHT22;37038;50.182;8.624;2023-06-22T04:04:18;21.60;99.90
51011;DHT22;37038;50.182;8.624;2023-06-22T04:07:06;21.60;99.90
51011;DHT22;37038;50.182;8.624;2023-06-22T04:09:55;21.80;99.90
51011;DHT22;37038;50.182;8.624;2023-06-22T04:12:43;21.80;99.90
51011;DHT22;37038;50.182;8.624;2023-06-22T04:15:32;21.80;99.90
51011;DHT22;37038;50.182;8.624;2023-06-22T04:18:19;21.80;99.90
51011;DHT22;37038;50.182;8.624;2023-06-22T04:21:07;21.80;99.90
51011;DHT22;37038;50.182;8.624;2023-06-22T04:23:55;21.90;99.90
51011;DHT22;37038;50.182;8.624;2023-06-22T04:26:43;21.90;99.90
51011;DHT22;37038;50.182;8.624;2023-06-22T04:29:33;21.80;99.90
51011;DHT22;37038;50.182;8.624;2023-06-22T04:32:20;21.70;99.90
51011;DHT22;37038;50.182;8.624;2023-06-22T04:35:08;21.80;99.90
51011;DHT22;37038;50.182;8.624;2023-06-22T04:37:58;21.80;99.90
51011;DHT22;37038;50.182;8.624;2023-06-22T04:40:47;21.70;99.90
51011;DHT22;37038;50.182;8.624;2023-06-22T04:43:35;21.60;99.90
51011;DHT22;37038;50.182;8.624;2023-06-22T04:46:23;21.50;99.90
51011;DHT22;37038;50.182;8.624;2023-06-22T04:49:10;21.60;99.90
51011;DHT22;37038;50.182;8.624;2023-06-22T04:52:06;21.60;99.90
51011;DHT22;37038;50.182;8.624;2023-06-22T04:54:55;21.80;99.90
51011;DHT22;37038;50.182;8.624;2023-06-22T04:57:49;22.00;99.90
51011;DHT22;37038;50.182;8.624;2023-06-22T05:00:37;21.90;99.90
51011;DHT22;37038;50.182;8.624;2023-06-22T05:03:26;21.80;99.90
51011;DHT22;37038;50.182;8.624;2023-06-22T05:06:14;21.80;99.90
51011;DHT22;37038;50.182;8.624;2023-06-22T05:09:03;22.00;99.90
51011;DHT22;37038;50.182;8.624;2023-06-22T05:11:54;22.00;99.90
51011;DHT22;37038;50.182;8.624;2023-06-22T05:14:43;22.20;99.90
51011;DHT22;37038;50.182;8.624;2023-06-22T05:17:34;22.50;99.90
51011;DHT22;37038;50.182;8.624;2023-06-22T05:20:24;22.70;99.90
51011;DHT22;37038;50.182;8.624;2023-06-22T05:23:15;22.90;99.90
51011;DHT22;37038;50.182;8.624;2023-06-22T05:26:05;23.00;99.90
51011;DHT22;37038;50.182;8.624;2023-06-22T05:28:55;23.00;99.90
51011;DHT22;37038;50.182;8.624;2023-06-22T05:31:44;23.00;99.90
51011;DHT22;37038;50.182;8.624;2023-06-22T05:34:34;23.20;99.90
51011;DHT22;37038;50.182;8.624;2023-06-22T05:37:24;23.30;99.90
51011;DHT22;37038;50.182;8.624;2023-06-22T05:40:13;23.70;99.90
51011;DHT22;37038;50.182;8.624;2023-06-22T05:43:03;24.00;99.90
51011;DHT22;37038;50.182;8.624;2023-06-22T05:45:53;24.50;99.90
51011;DHT22;37038;50.182;8.624;2023-06-22T05:48:42;24.30;99.90
51011;DHT22;37038;50.182;8.624;2023-06-22T05:51:36;24.00;99.90
51011;DHT22;37038;50.182;8.624;2023-06-22T05:54:33;25.00;99.90
51011;DHT22;37038;50.182;8.624;2023-06-22T05:57:23;26.50;99.90
51011;DHT22;37038;50.182;8.624;2023-06-22T06:00:16;27.10;99.90
51011;DHT22;37038;50.182;8.624;2023-06-22T06:03:08;27.80;99.90
51011;DHT22;37038;50.182;8.624;2023-06-22T06:06:02;28.80;99.90
51011;DHT22;37038;50.182;8.624;2023-06-22T06:08:57;29.40;99.90
51011;DHT22;37038;50.182;8.624;2023-06-22T06:11:53;29.70;99.90
51011;DHT22;37038;50.182;8.624;2023-06-22T06:14:44;30.00;99.90
51011;DHT22;37038;50.182;8.624;2023-06-22T06:17:35;30.00;99.90
51011;DHT22;37038;50.182;8.624;2023-06-22T06:20:26;29.50;99.90
51011;DHT22;37038;50.182;8.624;2023-06-22T06:23:24;29.80;99.90
51011;DHT22;37038;50.182;8.624;2023-06-22T06:26:14;29.90;99.90
51011;DHT22;37038;50.182;8.624;2023-06-22T06:29:05;30.30;99.90
51011;DHT22;37038;50.182;8.624;2023-06-22T06:31:54;30.60;99.90
51011;DHT22;37038;50.182;8.624;2023-06-22T06:34:51;30.30;99.90
51011;DHT22;37038;50.182;8.624;2023-06-22T06:37:50;30.50;99.90
51011;DHT22;37038;50.182;8.624;2023-06-22T06:40:47;31.20;99.90
51011;DHT22;37038;50.182;8.624;2023-06-22T06:43:42;31.40;99.90
51011;DHT22;37038;50.182;8.624;2023-06-22T06:46:38;31.80;99.50
51011;DHT22;37038;50.182;8.624;2023-06-22T06:49:33;31.60;99.70
51011;DHT22;37038;50.182;8.624;2023-06-22T06:52:26;31.80;98.70
51011;DHT22;37038;50.182;8.624;2023-06-22T06:55:20;31.80;98.30
51011;DHT22;37038;50.182;8.624;2023-06-22T06:58:14;31.50;99.30
51011;DHT22;37038;50.182;8.624;2023-06-22T07:01:06;30.50;99.90
51011;DHT22;37038;50.182;8.624;2023-06-22T07:03:56;30.20;99.90
51011;DHT22;37038;50.182;8.624;2023-06-22T07:06:46;29.80;99.90
51011;DHT22;37038;50.182;8.624;2023-06-22T07:09:36;29.80;99.90
51011;DHT22;37038;50.182;8.624;2023-06-22T07:12:30;30.50;99.90
51011;DHT22;37038;50.182;8.624;2023-06-22T07:15:21;31.30;99.90
51011;DHT22;37038;50.182;8.624;2023-06-22T07:18:10;30.90;99.90
51011;DHT22;37038;50.182;8.624;2023-06-22T07:21:02;31.30;99.60
51011;DHT22;37038;50.182;8.624;2023-06-22T07:23:55;31.80;99.00
51011;DHT22;37038;50.182;8.624;2023-06-22T07:26:47;32.70;97.10
51011;DHT22;37038;50.182;8.624;2023-06-22T07:29:38;33.20;95.20
51011;DHT22;37038;50.182;8.624;2023-06-22T07:32:30;32.90;94.50
51011;DHT22;37038;50.182;8.624;2023-06-22T07:35:20;33.40;94.00
51011;DHT22;37038;50.182;8.624;2023-06-22T07:38:12;34.10;92.60
51011;DHT22;37038;50.182;8.624;2023-06-22T07:41:06;33.90;91.60
51011;DHT22;37038;50.182;8.624;2023-06-22T07:43:55;34.40;90.40
51011;DHT22;37038;50.182;8.624;2023-06-22T07:46:47;33.90;88.80
51011;DHT22;37038;50.182;8.624;2023-06-22T07:49:36;34.60;87.10
51011;DHT22;37038;50.182;8.624;2023-06-22T07:52:29;34.80;86.40
51011;DHT22;37038;50.182;8.624;2023-06-22T07:55:18;35.50;83.10
51011;DHT22;37038;50.182;8.624;2023-06-22T07:58:11;36.10;81.10
51011;DHT22;37038;50.182;8.624;2023-06-22T08:01:02;35.70;75.10
51011;DHT22;37038;50.182;8.624;2023-06-22T08:03:52;35.20;77.40
51011;DHT22;37038;50.182;8.624;2023-06-22T08:06:44;34.70;76.50
51011;DHT22;37038;50.182;8.624;2023-06-22T08:09:34;34.70;73.80
51011;DHT22;37038;50.182;8.624;2023-06-22T08:12:26;34.80;74.40
51011;DHT22;37038;50.182;8.624;2023-06-22T08:15:19;34.90;75.50
51011;DHT22;37038;50.182;8.624;2023-06-22T08:18:07;34.30;75.00
51011;DHT22;37038;50.182;8.624;2023-06-22T08:20:59;35.40;73.60
51011;DHT22;37038;50.182;8.624;2023-06-22T08:23:56;35.40;71.90
51011;DHT22;37038;50.182;8.624;2023-06-22T08:26:51;35.90;69.70
51011;DHT22;37038;50.182;8.624;2023-06-22T08:29:44;36.40;67.90
51011;DHT22;37038;50.182;8.624;2023-06-22T08:32:35;36.30;66.20
51011;DHT22;37038;50.182;8.624;2023-06-22T08:35:24;36.20;64.70
51011;DHT22;37038;50.182;8.624;2023-06-22T08:38:16;36.20;59.60
51011;DHT22;37038;50.182;8.624;2023-06-22T08:41:08;35.30;63.10
51011;DHT22;37038;50.182;8.624;2023-06-22T08:43:58;32.80;68.80
51011;DHT22;37038;50.182;8.624;2023-06-22T08:46:52;34.30;70.50
51011;DHT22;37038;50.182;8.624;2023-06-22T08:49:42;36.40;63.00
51011;DHT22;37038;50.182;8.624;2023-06-22T08:52:32;34.80;63.30
51011;DHT22;37038;50.182;8.624;2023-06-22T08:55:21;35.30;65.70
51011;DHT22;37038;50.182;8.624;2023-06-22T08:58:12;36.60;63.30
51011;DHT22;37038;50.182;8.624;2023-06-22T09:01:01;34.90;60.30
51011;DHT22;37038;50.182;8.624;2023-06-22T09:03:51;33.20;69.60
51011;DHT22;37038;50.182;8.624;2023-06-22T09:06:48;34.30;69.10
51011;DHT22;37038;50.182;8.624;2023-06-22T09:09:41;32.90;70.30
51011;DHT22;37038;50.182;8.624;2023-06-22T09:12:32;33.70;67.00
51011;DHT22;37038;50.182;8.624;2023-06-22T09:15:21;33.80;68.90
51011;DHT22;37038;50.182;8.624;2023-06-22T09:18:15;34.50;64.70
51011;DHT22;37038;50.182;8.624;2023-06-22T09:21:05;33.30;67.00
51011;DHT22;37038;50.182;8.624;2023-06-22T09:23:54;33.00;69.20
51011;DHT22;37038;50.182;8.624;2023-06-22T09:26:45;32.90;73.10
51011;DHT22;37038;50.182;8.624;2023-06-22T09:29:37;32.50;72.10
51011;DHT22;37038;50.182;8.624;2023-06-22T09:32:27;33.90;70.90
51011;DHT22;37038;50.182;8.624;2023-06-22T09:35:19;35.10;66.20
51011;DHT22;37038;50.182;8.624;2023-06-22T09:38:11;35.50;67.90
51011;DHT22;37038;50.182;8.624;2023-06-22T09:41:00;36.00;64.50
51011;DHT22;37038;50.182;8.624;2023-06-22T09:43:54;37.60;61.40
51011;DHT22;37038;50.182;8.624;2023-06-22T09:46:46;37.70;55.90
51011;DHT22;37038;50.182;8.624;2023-06-22T09:49:35;37.40;56.40
51011;DHT22;37038;50.182;8.624;2023-06-22T09:52:28;36.60;55.00
51011;DHT22;37038;50.182;8.624;2023-06-22T09:55:35;34.70;59.80
51011;DHT22;37038;50.182;8.624;2023-06-22T09:58:27;35.80;59.70
51011;DHT22;37038;50.182;8.624;2023-06-22T10:01:21;34.70;59.50
51011;DHT22;37038;50.182;8.624;2023-06-22T10:04:13;35.70;59.00
51011;DHT22;37038;50.182;8.624;2023-06-22T10:07:04;35.50;59.70
51011;DHT22;37038;50.182;8.624;2023-06-22T10:09:54;34.30;62.40
51011;DHT22;37038;50.182;8.624;2023-06-22T10:12:47;33.70;66.10
51011;DHT22;37038;50.182;8.624;2023-06-22T10:15:40;33.80;65.10
51011;DHT22;37038;50.182;8.624;2023-06-22T10:18:29;35.40;62.10
51011;DHT22;37038;50.182;8.624;2023-06-22T10:21:20;35.40;58.50
51011;DHT22;37038;50.182;8.624;2023-06-22T10:24:15;34.80;56.80
51011;DHT22;37038;50.182;8.624;2023-06-22T10:27:05;35.00;55.70
51011;DHT22;37038;50.182;8.624;2023-06-22T10:29:57;34.30;57.70
51011;DHT22;37038;50.182;8.624;2023-06-22T10:32:47;34.70;59.20
51011;DHT22;37038;50.182;8.624;2023-06-22T10:35:38;35.50;53.30
51011;DHT22;37038;50.182;8.624;2023-06-22T10:38:27;34.50;57.90
51011;DHT22;37038;50.182;8.624;2023-06-22T10:41:19;35.20;56.40
51011;DHT22;37038;50.182;8.624;2023-06-22T10:44:09;36.00;55.70
51011;DHT22;37038;50.182;8.624;2023-06-22T10:47:01;36.40;49.50
51011;DHT22;37038;50.182;8.624;2023-06-22T10:49:50;37.90;46.70
51011;DHT22;37038;50.182;8.624;2023-06-22T10:52:40;36.90;41.50
51011;DHT22;37038;50.182;8.624;2023-06-22T10:55:33;36.30;41.30
51011;DHT22;37038;50.182;8.624;2023-06-22T10:58:44;36.60;42.50
51011;DHT22;37038;50.182;8.624;2023-06-22T11:01:34;37.10;39.70
51011;DHT22;37038;50.182;8.624;2023-06-22T11:04:26;37.50;37.20
51011;DHT22;37038;50.182;8.624;2023-06-22T11:07:17;36.10;37.60
51011;DHT22;37038;50.182;8.624;2023-06-22T11:10:07;36.00;37.50
51011;DHT22;37038;50.182;8.624;2023-06-22T11:12:59;36.50;36.80
51011;DHT22;37038;50.182;8.624;2023-06-22T11:15:50;38.10;34.40
51011;DHT22;37038;50.182;8.624;2023-06-22T11:18:42;36.50;35.10
51011;DHT22;37038;50.182;8.624;2023-06-22T11:21:31;36.30;35.30
51011;DHT22;37038;50.182;8.624;2023-06-22T11:24:20;37.30;33.80
51011;DHT22;37038;50.182;8.624;2023-06-22T11:27:11;35.90;34.60
51011;DHT22;37038;50.182;8.624;2023-06-22T11:30:02;35.10;35.10
51011;DHT22;37038;50.182;8.624;2023-06-22T11:32:58;34.20;40.40
51011;DHT22;37038;50.182;8.624;2023-06-22T11:35:49;34.80;39.50
51011;DHT22;37038;50.182;8.624;2023-06-22T11:38:42;35.70;36.80
51011;DHT22;37038;50.182;8.624;2023-06-22T11:41:33;35.40;37.50
51011;DHT22;37038;50.182;8.624;2023-06-22T11:44:26;35.00;37.90
51011;DHT22;37038;50.182;8.624;2023-06-22T11:47:16;36.80;36.80
51011;DHT22;37038;50.182;8.624;2023-06-22T11:50:07;37.00;34.50
51011;DHT22;37038;50.182;8.624;2023-06-22T11:52:57;35.40;36.10
51011;DHT22;37038;50.182;8.624;2023-06-22T11:55:46;37.10;35.00
51011;DHT22;37038;50.182;8.624;2023-06-22T11:58:34;35.70;36.10
51011;DHT22;37038;50.182;8.624;2023-06-22T12:01:25;33.90;38.70
51011;DHT22;37038;50.182;8.624;2023-06-22T12:04:15;34.10;41.50
51011;DHT22;37038;50.182;8.624;2023-06-22T12:07:04;36.30;35.90
51011;DHT22;37038;50.182;8.624;2023-06-22T12:09:54;37.80;32.90
51011;DHT22;37038;50.182;8.624;2023-06-22T12:12:44;37.60;33.50
51011;DHT22;37038;50.182;8.624;2023-06-22T12:15:34;37.50;31.40
51011;DHT22;37038;50.182;8.624;2023-06-22T12:18:27;37.70;32.90
51011;DHT22;37038;50.182;8.624;2023-06-22T12:21:16;37.80;31.30
51011;DHT22;37038;50.182;8.624;2023-06-22T12:24:10;35.20;35.30
51011;DHT22;37038;50.182;8.624;2023-06-22T12:26:59;38.00;31.10
51011;DHT22;37038;50.182;8.624;2023-06-22T12:29:53;38.10;31.80
51011;DHT22;37038;50.182;8.624;2023-06-22T12:32:44;39.00;29.60
51011;DHT22;37038;50.182;8.624;2023-06-22T12:35:35;40.40;28.30
51011;DHT22;37038;50.182;8.624;2023-06-22T12:38:25;39.10;26.20
51011;DHT22;37038;50.182;8.624;2023-06-22T12:41:15;38.30;27.20
51011;DHT22;37038;50.182;8.624;2023-06-22T12:44:08;37.50;28.30
51011;DHT22;37038;50.182;8.624;2023-06-22T12:46:58;37.80;27.60
51011;DHT22;37038;50.182;8.624;2023-06-22T12:49:48;38.90;25.30
51011;DHT22;37038;50.182;8.624;2023-06-22T12:52:39;38.20;26.40
51011;DHT22;37038;50.182;8.624;2023-06-22T12:55:30;35.00;29.70
51011;DHT22;37038;50.182;8.624;2023-06-22T12:58:20;34.20;32.60
51011;DHT22;37038;50.182;8.624;2023-06-22T13:01:10;33.70;33.10
51011;DHT22;37038;50.182;8.624;2023-06-22T13:04:01;34.30;33.90
51011;DHT22;37038;50.182;8.624;2023-06-22T13:06:52;33.80;34.80
51011;DHT22;37038;50.182;8.624;2023-06-22T13:09:45;34.20;34.20
51011;DHT22;37038;50.182;8.624;2023-06-22T13:12:39;32.70;36.40
51011;DHT22;37038;50.182;8.624;2023-06-22T13:15:28;32.90;38.30
51011;DHT22;37038;50.182;8.624;2023-06-22T13:18:19;33.10;39.60
51011;DHT22;37038;50.182;8.624;2023-06-22T13:21:08;32.50;41.30
51011;DHT22;37038;50.182;8.624;2023-06-22T13:23:58;32.10;42.70
51011;DHT22;37038;50.182;8.624;2023-06-22T13:26:52;31.80;43.80
51011;DHT22;37038;50.182;8.624;2023-06-22T13:29:42;31.50;44.50
51011;DHT22;37038;50.182;8.624;2023-06-22T13:32:31;32.70;44.40
51011;DHT22;37038;50.182;8.624;2023-06-22T13:35:22;32.90;42.30
51011;DHT22;37038;50.182;8.624;2023-06-22T13:38:16;33.00;43.60
51011;DHT22;37038;50.182;8.624;2023-06-22T13:41:07;33.80;42.40
51011;DHT22;37038;50.182;8.624;2023-06-22T13:43:58;32.70;45.20
51011;DHT22;37038;50.182;8.624;2023-06-22T13:46:50;32.20;42.10
51011;DHT22;37038;50.182;8.624;2023-06-22T13:49:39;31.90;46.00
51011;DHT22;37038;50.182;8.624;2023-06-22T13:52:34;32.60;46.20
51011;DHT22;37038;50.182;8.624;2023-06-22T13:55:23;32.80;46.90
51011;DHT22;37038;50.182;8.624;2023-06-22T13:58:11;32.80;45.60
51011;DHT22;37038;50.182;8.624;2023-06-22T14:01:02;31.20;48.60
51011;DHT22;37038;50.182;8.624;2023-06-22T14:03:54;31.20;51.00
51011;DHT22;37038;50.182;8.624;2023-06-22T14:06:45;31.70;50.90
51011;DHT22;37038;50.182;8.624;2023-06-22T14:09:34;31.30;51.00
51011;DHT22;37038;50.182;8.624;2023-06-22T14:12:23;32.30;49.70
51011;DHT22;37038;50.182;8.624;2023-06-22T14:15:13;32.50;49.80
51011;DHT22;37038;50.182;8.624;2023-06-22T14:18:04;32.90;48.60
51011;DHT22;37038;50.182;8.624;2023-06-22T14:20:55;33.20;47.20
51011;DHT22;37038;50.182;8.624;2023-06-22T14:23:45;33.00;47.50
51011;DHT22;37038;50.182;8.624;2023-06-22T14:26:38;33.30;46.90
51011;DHT22;37038;50.182;8.624;2023-06-22T14:29:28;33.40;48.20
51011;DHT22;37038;50.182;8.624;2023-06-22T14:32:17;32.40;49.60
51011;DHT22;37038;50.182;8.624;2023-06-22T14:35:05;32.20;50.50
51011;DHT22;37038;50.182;8.624;2023-06-22T14:37:57;32.40;50.30
51011;DHT22;37038;50.182;8.624;2023-06-22T14:40:48;32.90;49.30
51011;DHT22;37038;50.182;8.624;2023-06-22T14:43:58;32.40;48.80
51011;DHT22;37038;50.182;8.624;2023-06-22T14:46:48;32.30;49.70
51011;DHT22;37038;50.182;8.624;2023-06-22T14:49:38;32.40;47.80
51011;DHT22;37038;50.182;8.624;2023-06-22T14:52:27;31.80;40.70
51011;DHT22;37038;50.182;8.624;2023-06-22T14:55:17;31.70;39.40
51011;DHT22;37038;50.182;8.624;2023-06-22T14:58:07;31.70;38.60
51011;DHT22;37038;50.182;8.624;2023-06-22T15:01:03;31.80;39.10
51011;DHT22;37038;50.182;8.624;2023-06-22T15:03:53;31.70;38.60
51011;DHT22;37038;50.182;8.624;2023-06-22T15:06:43;31.60;37.90
51011;DHT22;37038;50.182;8.624;2023-06-22T15:09:33;31.70;38.30
51011;DHT22;37038;50.182;8.624;2023-06-22T15:12:23;31.70;39.30
51011;DHT22;37038;50.182;8.624;2023-06-22T15:15:15;31.60;39.00
51011;DHT22;37038;50.182;8.624;2023-06-22T15:18:04;31.50;39.80
51011;DHT22;37038;50.182;8.624;2023-06-22T15:20:54;31.30;40.50
51011;DHT22;37038;50.182;8.624;2023-06-22T15:23:46;30.90;40.70
51011;DHT22;37038;50.182;8.624;2023-06-22T15:26:39;30.80;43.40
51011;DHT22;37038;50.182;8.624;2023-06-22T15:29:28;30.40;46.70
51011;DHT22;37038;50.182;8.624;2023-06-22T15:32:23;30.10;48.60
51011;DHT22;37038;50.182;8.624;2023-06-22T15:35:13;29.60;56.50
51011;DHT22;37038;50.182;8.624;2023-06-22T15:38:04;28.90;67.00
51011;DHT22;37038;50.182;8.624;2023-06-22T15:40:55;26.30;95.80
51011;DHT22;37038;50.182;8.624;2023-06-22T15:43:42;24.00;99.90
51011;DHT22;37038;50.182;8.624;2023-06-22T15:46:30;23.40;99.90
51011;DHT22;37038;50.182;8.624;2023-06-22T15:49:18;23.50;99.90
51011;DHT22;37038;50.182;8.624;2023-06-22T15:52:06;24.00;99.90
51011;DHT22;37038;50.182;8.624;2023-06-22T15:54:57;24.30;99.90
51011;DHT22;37038;50.182;8.624;2023-06-22T15:57:51;24.80;99.90
51011;DHT22;37038;50.182;8.624;2023-06-22T16:00:44;25.40;99.90
51011;DHT22;37038;50.182;8.624;2023-06-22T16:03:39;25.70;99.90
51011;DHT22;37038;50.182;8.624;2023-06-22T16:06:29;25.90;99.90
51011;DHT22;37038;50.182;8.624;2023-06-22T16:09:20;25.50;99.90
51011;DHT22;37038;50.182;8.624;2023-06-22T16:12:08;25.30;99.90
51011;DHT22;37038;50.182;8.624;2023-06-22T16:14:56;24.90;99.90
51011;DHT22;37038;50.182;8.624;2023-06-22T16:17:44;23.90;99.90
51011;DHT22;37038;50.182;8.624;2023-06-22T16:20:31;22.50;99.90
51011;DHT22;37038;50.182;8.624;2023-06-22T16:23:19;21.50;99.90
51011;DHT22;37038;50.182;8.624;2023-06-22T16:26:07;21.20;99.90
51011;DHT22;37038;50.182;8.624;2023-06-22T16:29:03;20.70;99.90
51011;DHT22;37038;50.182;8.624;2023-06-22T16:31:51;21.20;99.90
51011;DHT22;37038;50.182;8.624;2023-06-22T16:34:42;20.90;99.90
51011;DHT22;37038;50.182;8.624;2023-06-22T16:37:34;19.20;99.90
51011;DHT22;37038;50.182;8.624;2023-06-22T16:40:28;18.50;99.90
51011;DHT22;37038;50.182;8.624;2023-06-22T16:43:30;18.60;99.90
51011;DHT22;37038;50.182;8.624;2023-06-22T16:46:27;19.00;99.90
51011;DHT22;37038;50.182;8.624;2023-06-22T16:49:16;19.10;99.90
51011;DHT22;37038;50.182;8.624;2023-06-22T16:52:06;19.10;99.90
51011;DHT22;37038;50.182;8.624;2023-06-22T16:54:58;19.10;99.90
51011;DHT22;37038;50.182;8.624;2023-06-22T16:57:51;19.20;99.90
51011;DHT22;37038;50.182;8.624;2023-06-22T17:00:39;19.30;99.90
51011;DHT22;37038;50.182;8.624;2023-06-22T17:03:33;19.60;99.90
51011;DHT22;37038;50.182;8.624;2023-06-22T17:06:22;19.70;99.90
51011;DHT22;37038;50.182;8.624;2023-06-22T17:09:12;20.10;99.90
51011;DHT22;37038;50.182;8.624;2023-06-22T17:12:05;20.10;99.90
51011;DHT22;37038;50.182;8.624;2023-06-22T17:14:57;20.20;99.90
51011;DHT22;37038;50.182;8.624;2023-06-22T17:17:49;20.30;99.90
51011;DHT22;37038;50.182;8.624;2023-06-22T17:20:41;20.30;99.90
51011;DHT22;37038;50.182;8.624;2023-06-22T17:23:32;20.50;99.90
51011;DHT22;37038;50.182;8.624;2023-06-22T17:26:22;20.50;99.90
51011;DHT22;37038;50.182;8.624;2023-06-22T17:29:21;20.70;99.90
51011;DHT22;37038;50.182;8.624;2023-06-22T17:32:20;20.70;99.90
51011;DHT22;37038;50.182;8.624;2023-06-22T17:35:11;20.70;99.90
51011;DHT22;37038;50.182;8.624;2023-06-22T17:37:59;20.80;99.90
51011;DHT22;37038;50.182;8.624;2023-06-22T17:40:48;20.80;99.90
51011;DHT22;37038;50.182;8.624;2023-06-22T17:43:46;20.90;99.90
51011;DHT22;37038;50.182;8.624;2023-06-22T17:46:38;21.00;99.90
51011;DHT22;37038;50.182;8.624;2023-06-22T17:49:28;21.00;99.90
51011;DHT22;37038;50.182;8.624;2023-06-22T17:52:18;21.10;99.90
51011;DHT22;37038;50.182;8.624;2023-06-22T17:55:11;21.40;99.90
51011;DHT22;37038;50.182;8.624;2023-06-22T17:57:59;21.40;99.90
51011;DHT22;37038;50.182;8.624;2023-06-22T18:00:49;21.50;99.90
51011;DHT22;37038;50.182;8.624;2023-06-22T18:03:42;21.70;99.90
51011;DHT22;37038;50.182;8.624;2023-06-22T18:06:37;22.00;99.90
51011;DHT22;37038;50.182;8.624;2023-06-22T18:09:36;21.90;99.90